sensor_id;sensor_type;location;lat;lon;timestamp;temperature;humidity
33761;DHT22;20084;47.912;19.044;2023-02-18T00:01:24;12.50;99.90
33761;DHT22;20084;47.912;19.044;2023-02-18T00:03:50;12.40;99.90
33761;DHT22;20084;47.912;19.044;2023-02-18T00:06:19;12.50;99.90
33761;DHT22;20084;47.912;19.044;2023-02-18T00:08:45;12.50;99.90
33761;DHT22;20084;47.912;19.044;2023-02-18T00:11:11;12.50;99.90
33761;DHT22;20084;47.912;19.044;2023-02-18T00:13:37;12.60;99.90
33761;DHT22;20084;47.912;19.044;2023-02-18T00:16:05;12.60;99.90
33761;DHT22;20084;47.912;19.044;2023-02-18T00:18:31;12.60;99.90
33761;DHT22;20084;47.912;19.044;2023-02-18T00:20:57;12.60;99.90
33761;DHT22;20084;47.912;19.044;2023-02-18T00:23:23;12.60;99.90
33761;DHT22;20084;47.912;19.044;2023-02-18T00:25:49;12.60;99.90
33761;DHT22;20084;47.912;19.044;2023-02-18T00:28:15;12.60;99.90
33761;DHT22;20084;47.912;19.044;2023-02-18T00:30:41;12.60;99.90
33761;DHT22;20084;47.912;19.044;2023-02-18T00:33:07;12.60;99.90
33761;DHT22;20084;47.912;19.044;2023-02-18T00:35:33;12.60;99.90
33761;DHT22;20084;47.912;19.044;2023-02-18T00:37:58;12.70;99.90
33761;DHT22;20084;47.912;19.044;2023-02-18T00:40:24;12.70;99.90
33761;DHT22;20084;47.912;19.044;2023-02-18T00:42:50;12.60;99.90
33761;DHT22;20084;47.912;19.044;2023-02-18T00:45:15;12.60;99.90
33761;DHT22;20084;47.912;19.044;2023-02-18T00:47:41;12.60;99.90
33761;DHT22;20084;47.912;19.044;2023-02-18T00:50:08;12.60;99.90
33761;DHT22;20084;47.912;19.044;2023-02-18T00:52:34;12.60;99.90
33761;DHT22;20084;47.912;19.044;2023-02-18T00:55:00;12.70;99.90
33761;DHT22;20084;47.912;19.044;2023-02-18T00:57:25;12.70;99.90
33761;DHT22;20084;47.912;19.044;2023-02-18T00:59:51;12.70;99.90
33761;DHT22;20084;47.912;19.044;2023-02-18T01:02:17;12.70;99.90
33761;DHT22;20084;47.912;19.044;2023-02-18T01:04:42;12.70;99.90
33761;DHT22;20084;47.912;19.044;2023-02-18T01:07:08;12.60;99.90
33761;DHT22;20084;47.912;19.044;2023-02-18T01:09:35;12.60;99.90
33761;DHT22;20084;47.912;19.044;2023-02-18T01:12:01;12.60;99.90
33761;DHT22;20084;47.912;19.044;2023-02-18T01:14:27;12.60;99.90
33761;DHT22;20084;47.912;19.044;2023-02-18T01:16:53;12.60;99.90
33761;DHT22;20084;47.912;19.044;2023-02-18T01:19:18;12.60;99.90
33761;DHT22;20084;47.912;19.044;2023-02-18T01:21:44;12.60;99.90
33761;DHT22;20084;47.912;19.044;2023-02-18T01:24:10;12.60;99.90
33761;DHT22;20084;47.912;19.044;2023-02-18T01:26:35;12.60;99.90
33761;DHT22;20084;47.912;19.044;2023-02-18T01:29:01;12.60;99.90
33761;DHT22;20084;47.912;19.044;2023-02-18T01:31:27;12.60;99.90
33761;DHT22;20084;47.912;19.044;2023-02-18T01:33:52;12.60;99.90
33761;DHT22;20084;47.912;19.044;2023-02-18T01:36:18;12.60;99.90
33761;DHT22;20084;47.912;19.044;2023-02-18T01:38:44;12.70;99.90
33761;DHT22;20084;47.912;19.044;2023-02-18T01:41:10;12.70;99.90
33761;DHT22;20084;47.912;19.044;2023-02-18T01:43:36;12.70;99.90
33761;DHT22;20084;47.912;19.044;2023-02-18T01:46:05;12.80;99.90
33761;DHT22;20084;47.912;19.044;2023-02-18T01:51:06;12.80;99.90
33761;DHT22;20084;47.912;19.044;2023-02-18T01:53:42;12.80;99.90
33761;DHT22;20084;47.912;19.044;2023-02-18T01:56:13;12.80;99.90
33761;DHT22;20084;47.912;19.044;2023-02-18T01:58:39;12.80;99.90
33761;DHT22;20084;47.912;19.044;2023-02-18T02:01:06;12.80;99.90
33761;DHT22;20084;47.912;19.044;2023-02-18T02:03:31;12.80;99.90
33761;DHT22;20084;47.912;19.044;2023-02-18T02:05:57;12.80;99.90
33761;DHT22;20084;47.912;19.044;2023-02-18T02:08:23;12.80;99.90
33761;DHT22;20084;47.912;19.044;2023-02-18T02:11:01;12.70;99.90
33761;DHT22;20084;47.912;19.044;2023-02-18T02:13:41;12.70;99.90
33761;DHT22;20084;47.912;19.044;2023-02-18T02:16:21;12.70;99.90
33761;DHT22;20084;47.912;19.044;2023-02-18T02:38:58;12.70;99.90
33761;DHT22;20084;47.912;19.044;2023-02-18T02:41:45;12.80;99.90
33761;DHT22;20084;47.912;19.044;2023-02-18T02:47:59;12.70;99.90
33761;DHT22;20084;47.912;19.044;2023-02-18T02:50:39;12.80;99.90
33761;DHT22;20084;47.912;19.044;2023-02-18T02:53:35;12.70;99.90
33761;DHT22;20084;47.912;19.044;2023-02-18T02:56:01;12.70;99.90
33761;DHT22;20084;47.912;19.044;2023-02-18T02:58:27;12.60;99.90
33761;DHT22;20084;47.912;19.044;2023-02-18T03:03:47;12.70;99.90
33761;DHT22;20084;47.912;19.044;2023-02-18T03:06:36;12.80;99.90
33761;DHT22;20084;47.912;19.044;2023-02-18T03:18:04;12.70;99.90
33761;DHT22;20084;47.912;19.044;2023-02-18T03:20:50;12.80;99.90
33761;DHT22;20084;47.912;19.044;2023-02-18T03:23:20;12.80;99.90
33761;DHT22;20084;47.912;19.044;2023-02-18T03:25:49;12.80;99.90
33761;DHT22;20084;47.912;19.044;2023-02-18T03:28:18;12.80;99.90
33761;DHT22;20084;47.912;19.044;2023-02-18T03:30:52;12.80;99.90
33761;DHT22;20084;47.912;19.044;2023-02-18T03:33:26;12.80;99.90
33761;DHT22;20084;47.912;19.044;2023-02-18T03:35:53;12.80;99.90
33761;DHT22;20084;47.912;19.044;2023-02-18T03:38:25;12.80;99.90
33761;DHT22;20084;47.912;19.044;2023-02-18T03:40:54;12.80;99.90
33761;DHT22;20084;47.912;19.044;2023-02-18T03:43:20;12.80;99.90
33761;DHT22;20084;47.912;19.044;2023-02-18T03:45:46;12.80;99.90
33761;DHT22;20084;47.912;19.044;2023-02-18T03:48:11;12.80;99.90
33761;DHT22;20084;47.912;19.044;2023-02-18T03:50:37;12.80;99.90
33761;DHT22;20084;47.912;19.044;2023-02-18T03:53:03;12.90;99.90
33761;DHT22;20084;47.912;19.044;2023-02-18T03:55:28;12.90;99.90
33761;DHT22;20084;47.912;19.044;2023-02-18T03:57:54;12.90;99.90
33761;DHT22;20084;47.912;19.044;2023-02-18T04:00:20;12.90;99.90
33761;DHT22;20084;47.912;19.044;2023-02-18T04:02:46;12.90;99.90
33761;DHT22;20084;47.912;19.044;2023-02-18T04:05:11;12.90;99.90
33761;DHT22;20084;47.912;19.044;2023-02-18T04:07:37;12.90;99.90
33761;DHT22;20084;47.912;19.044;2023-02-18T04:10:04;12.80;99.90
33761;DHT22;20084;47.912;19.044;2023-02-18T04:12:30;12.80;99.90
33761;DHT22;20084;47.912;19.044;2023-02-18T04:14:56;12.80;99.90
33761;DHT22;20084;47.912;19.044;2023-02-18T04:17:21;12.90;99.90
33761;DHT22;20084;47.912;19.044;2023-02-18T04:19:47;12.90;99.90
33761;DHT22;20084;47.912;19.044;2023-02-18T04:22:13;12.90;99.90
33761;DHT22;20084;47.912;19.044;2023-02-18T04:24:38;12.90;99.90
33761;DHT22;20084;47.912;19.044;2023-02-18T04:27:04;12.80;99.90
33761;DHT22;20084;47.912;19.044;2023-02-18T04:29:30;12.90;99.90
33761;DHT22;20084;47.912;19.044;2023-02-18T04:31:56;12.80;99.90
33761;DHT22;20084;47.912;19.044;2023-02-18T04:34:21;12.70;99.90
33761;DHT22;20084;47.912;19.044;2023-02-18T04:36:47;12.70;99.90
33761;DHT22;20084;47.912;19.044;2023-02-18T04:39:13;12.70;99.90
33761;DHT22;20084;47.912;19.044;2023-02-18T04:41:38;12.60;99.90
33761;DHT22;20084;47.912;19.044;2023-02-18T04:44:04;12.60;99.90
33761;DHT22;20084;47.912;19.044;2023-02-18T04:46:30;12.60;99.90
33761;DHT22;20084;47.912;19.044;2023-02-18T04:48:56;12.50;99.90
33761;DHT22;20084;47.912;19.044;2023-02-18T04:51:21;12.50;99.90
33761;DHT22;20084;47.912;19.044;2023-02-18T04:53:47;12.40;99.90
33761;DHT22;20084;47.912;19.044;2023-02-18T04:56:13;12.30;99.90
33761;DHT22;20084;47.912;19.044;2023-02-18T04:58:38;12.30;99.90
33761;DHT22;20084;47.912;19.044;2023-02-18T05:01:04;12.20;99.90
33761;DHT22;20084;47.912;19.044;2023-02-18T05:03:30;12.10;99.90
33761;DHT22;20084;47.912;19.044;2023-02-18T05:05:57;12.20;99.90
33761;DHT22;20084;47.912;19.044;2023-02-18T05:08:22;12.20;99.90
33761;DHT22;20084;47.912;19.044;2023-02-18T05:10:48;12.10;99.90
33761;DHT22;20084;47.912;19.044;2023-02-18T05:13:14;12.10;99.90
33761;DHT22;20084;47.912;19.044;2023-02-18T05:15:40;12.20;99.90
33761;DHT22;20084;47.912;19.044;2023-02-18T05:18:06;12.10;99.90
33761;DHT22;20084;47.912;19.044;2023-02-18T05:20:32;12.20;99.90
33761;DHT22;20084;47.912;19.044;2023-02-18T05:22:58;12.10;99.90
33761;DHT22;20084;47.912;19.044;2023-02-18T05:25:24;12.10;99.90
33761;DHT22;20084;47.912;19.044;2023-02-18T05:27:49;12.00;99.90
33761;DHT22;20084;47.912;19.044;2023-02-18T05:30:15;12.00;99.90
33761;DHT22;20084;47.912;19.044;2023-02-18T05:32:41;12.00;99.90
33761;DHT22;20084;47.912;19.044;2023-02-18T05:35:07;11.90;99.90
33761;DHT22;20084;47.912;19.044;2023-02-18T05:37:33;11.90;99.90
33761;DHT22;20084;47.912;19.044;2023-02-18T05:39:59;11.90;99.90
33761;DHT22;20084;47.912;19.044;2023-02-18T05:42:25;11.90;99.90
33761;DHT22;20084;47.912;19.044;2023-02-18T05:44:50;11.90;99.90
33761;DHT22;20084;47.912;19.044;2023-02-18T05:47:16;11.90;99.90
33761;DHT22;20084;47.912;19.044;2023-02-18T05:49:42;11.90;99.90
33761;DHT22;20084;47.912;19.044;2023-02-18T05:52:08;11.90;99.90
33761;DHT22;20084;47.912;19.044;2023-02-18T05:54:35;11.90;99.90
33761;DHT22;20084;47.912;19.044;2023-02-18T05:57:02;11.90;99.90
33761;DHT22;20084;47.912;19.044;2023-02-18T05:59:28;11.90;99.90
33761;DHT22;20084;47.912;19.044;2023-02-18T06:01:54;11.90;99.90
33761;DHT22;20084;47.912;19.044;2023-02-18T06:04:20;11.90;99.90
33761;DHT22;20084;47.912;19.044;2023-02-18T06:06:45;11.90;99.90
33761;DHT22;20084;47.912;19.044;2023-02-18T06:09:11;11.80;99.90
33761;DHT22;20084;47.912;19.044;2023-02-18T06:11:37;11.80;99.90
33761;DHT22;20084;47.912;19.044;2023-02-18T06:14:03;11.80;99.90
33761;DHT22;20084;47.912;19.044;2023-02-18T06:16:29;11.80;99.90
33761;DHT22;20084;47.912;19.044;2023-02-18T06:18:55;11.80;99.90
33761;DHT22;20084;47.912;19.044;2023-02-18T06:21:21;11.80;99.90
33761;DHT22;20084;47.912;19.044;2023-02-18T06:23:46;11.80;99.90
33761;DHT22;20084;47.912;19.044;2023-02-18T06:26:13;11.80;99.90
33761;DHT22;20084;47.912;19.044;2023-02-18T06:28:39;11.80;99.90
33761;DHT22;20084;47.912;19.044;2023-02-18T06:31:05;11.80;99.90
33761;DHT22;20084;47.912;19.044;2023-02-18T06:33:30;11.90;99.90
33761;DHT22;20084;47.912;19.044;2023-02-18T06:35:58;11.80;99.90
33761;DHT22;20084;47.912;19.044;2023-02-18T06:38:25;11.90;99.90
33761;DHT22;20084;47.912;19.044;2023-02-18T06:40:51;11.90;99.90
33761;DHT22;20084;47.912;19.044;2023-02-18T06:43:17;11.90;99.90
33761;DHT22;20084;47.912;19.044;2023-02-18T06:45:43;12.00;99.90
33761;DHT22;20084;47.912;19.044;2023-02-18T06:48:09;11.90;99.90
33761;DHT22;20084;47.912;19.044;2023-02-18T06:50:35;12.00;99.90
33761;DHT22;20084;47.912;19.044;2023-02-18T06:53:00;12.00;99.90
33761;DHT22;20084;47.912;19.044;2023-02-18T06:55:26;12.00;99.90
33761;DHT22;20084;47.912;19.044;2023-02-18T06:57:52;12.00;99.90
33761;DHT22;20084;47.912;19.044;2023-02-18T07:00:18;11.90;99.90
33761;DHT22;20084;47.912;19.044;2023-02-18T07:02:43;11.90;99.90
33761;DHT22;20084;47.912;19.044;2023-02-18T07:05:09;11.90;99.90
33761;DHT22;20084;47.912;19.044;2023-02-18T07:07:35;11.90;99.90
33761;DHT22;20084;47.912;19.044;2023-02-18T07:10:01;11.90;99.90
33761;DHT22;20084;47.912;19.044;2023-02-18T07:12:26;11.90;99.90
33761;DHT22;20084;47.912;19.044;2023-02-18T07:14:52;11.90;99.90
33761;DHT22;20084;47.912;19.044;2023-02-18T07:17:18;12.00;99.90
33761;DHT22;20084;47.912;19.044;2023-02-18T07:19:43;11.90;99.90
33761;DHT22;20084;47.912;19.044;2023-02-18T07:22:09;11.90;99.90
33761;DHT22;20084;47.912;19.044;2023-02-18T07:24:35;11.90;99.90
33761;DHT22;20084;47.912;19.044;2023-02-18T07:27:01;12.00;99.90
33761;DHT22;20084;47.912;19.044;2023-02-18T07:29:26;12.00;99.90
33761;DHT22;20084;47.912;19.044;2023-02-18T07:31:52;12.00;99.90
33761;DHT22;20084;47.912;19.044;2023-02-18T07:34:18;12.00;99.90
33761;DHT22;20084;47.912;19.044;2023-02-18T07:36:44;12.00;99.90
33761;DHT22;20084;47.912;19.044;2023-02-18T07:39:10;12.00;99.90
33761;DHT22;20084;47.912;19.044;2023-02-18T07:41:35;12.00;99.90
33761;DHT22;20084;47.912;19.044;2023-02-18T07:44:01;12.00;99.90
33761;DHT22;20084;47.912;19.044;2023-02-18T07:46:27;12.00;99.90
33761;DHT22;20084;47.912;19.044;2023-02-18T07:48:53;12.10;99.90
33761;DHT22;20084;47.912;19.044;2023-02-18T07:51:18;12.00;99.90
33761;DHT22;20084;47.912;19.044;2023-02-18T07:53:44;12.00;99.90
33761;DHT22;20084;47.912;19.044;2023-02-18T07:56:10;12.10;99.90
33761;DHT22;20084;47.912;19.044;2023-02-18T07:58:37;12.10;99.90
33761;DHT22;20084;47.912;19.044;2023-02-18T08:01:05;12.10;99.90
33761;DHT22;20084;47.912;19.044;2023-02-18T08:03:32;12.10;99.90
33761;DHT22;20084;47.912;19.044;2023-02-18T08:05:59;12.10;99.90
33761;DHT22;20084;47.912;19.044;2023-02-18T08:08:26;12.10;99.90
33761;DHT22;20084;47.912;19.044;2023-02-18T08:10:54;12.10;99.90
33761;DHT22;20084;47.912;19.044;2023-02-18T08:13:20;12.10;99.90
33761;DHT22;20084;47.912;19.044;2023-02-18T08:15:45;12.10;99.90
33761;DHT22;20084;47.912;19.044;2023-02-18T08:18:17;12.20;99.90
33761;DHT22;20084;47.912;19.044;2023-02-18T08:20:44;12.20;99.90
33761;DHT22;20084;47.912;19.044;2023-02-18T08:23:12;12.20;99.90
33761;DHT22;20084;47.912;19.044;2023-02-18T08:25:38;12.20;99.90
33761;DHT22;20084;47.912;19.044;2023-02-18T08:28:04;12.30;99.90
33761;DHT22;20084;47.912;19.044;2023-02-18T08:30:29;12.30;99.90
33761;DHT22;20084;47.912;19.044;2023-02-18T08:32:55;12.30;99.90
33761;DHT22;20084;47.912;19.044;2023-02-18T08:35:21;12.30;99.90
33761;DHT22;20084;47.912;19.044;2023-02-18T08:37:47;12.30;99.90
33761;DHT22;20084;47.912;19.044;2023-02-18T08:40:13;12.40;99.90
33761;DHT22;20084;47.912;19.044;2023-02-18T08:42:39;12.40;99.90
33761;DHT22;20084;47.912;19.044;2023-02-18T08:45:05;12.40;99.90
33761;DHT22;20084;47.912;19.044;2023-02-18T08:47:32;12.50;99.90
33761;DHT22;20084;47.912;19.044;2023-02-18T08:49:58;12.50;99.90
33761;DHT22;20084;47.912;19.044;2023-02-18T08:52:24;12.50;99.90
33761;DHT22;20084;47.912;19.044;2023-02-18T08:54:50;12.50;99.90
33761;DHT22;20084;47.912;19.044;2023-02-18T08:57:16;12.60;99.90
33761;DHT22;20084;47.912;19.044;2023-02-18T08:59:41;12.50;99.90
33761;DHT22;20084;47.912;19.044;2023-02-18T09:02:11;12.50;99.90
33761;DHT22;20084;47.912;19.044;2023-02-18T09:04:37;12.60;99.90
33761;DHT22;20084;47.912;19.044;2023-02-18T09:07:03;12.60;99.90
33761;DHT22;20084;47.912;19.044;2023-02-18T09:09:28;12.60;99.90
33761;DHT22;20084;47.912;19.044;2023-02-18T09:11:54;12.60;99.90
33761;DHT22;20084;47.912;19.044;2023-02-18T09:14:20;12.60;99.90
33761;DHT22;20084;47.912;19.044;2023-02-18T09:16:45;12.60;99.90
33761;DHT22;20084;47.912;19.044;2023-02-18T09:19:11;12.70;99.90
33761;DHT22;20084;47.912;19.044;2023-02-18T09:21:37;12.60;99.90
33761;DHT22;20084;47.912;19.044;2023-02-18T09:24:03;12.70;99.90
33761;DHT22;20084;47.912;19.044;2023-02-18T09:26:29;12.80;99.90
33761;DHT22;20084;47.912;19.044;2023-02-18T09:28:56;12.80;99.90
33761;DHT22;20084;47.912;19.044;2023-02-18T09:31:24;12.80;99.90
33761;DHT22;20084;47.912;19.044;2023-02-18T09:33:56;12.90;99.90
33761;DHT22;20084;47.912;19.044;2023-02-18T09:36:23;12.90;99.90
33761;DHT22;20084;47.912;19.044;2023-02-18T09:38:48;13.00;99.90
33761;DHT22;20084;47.912;19.044;2023-02-18T09:41:24;13.00;99.90
33761;DHT22;20084;47.912;19.044;2023-02-18T09:43:54;13.10;99.90
33761;DHT22;20084;47.912;19.044;2023-02-18T09:46:25;13.10;99.90
33761;DHT22;20084;47.912;19.044;2023-02-18T09:48:52;13.20;99.90
33761;DHT22;20084;47.912;19.044;2023-02-18T09:51:18;13.20;99.90
33761;DHT22;20084;47.912;19.044;2023-02-18T09:53:45;13.20;99.90
33761;DHT22;20084;47.912;19.044;2023-02-18T09:56:24;13.20;99.90
33761;DHT22;20084;47.912;19.044;2023-02-18T09:58:51;13.10;99.90
33761;DHT22;20084;47.912;19.044;2023-02-18T10:01:37;13.10;99.90
33761;DHT22;20084;47.912;19.044;2023-02-18T10:04:12;13.10;99.90
33761;DHT22;20084;47.912;19.044;2023-02-18T10:06:38;13.20;99.90
33761;DHT22;20084;47.912;19.044;2023-02-18T10:09:19;13.10;99.90
33761;DHT22;20084;47.912;19.044;2023-02-18T10:11:54;13.20;99.90
33761;DHT22;20084;47.912;19.044;2023-02-18T10:14:19;13.10;99.90
33761;DHT22;20084;47.912;19.044;2023-02-18T10:16:46;13.00;99.90
33761;DHT22;20084;47.912;19.044;2023-02-18T10:19:29;13.00;99.90
33761;DHT22;20084;47.912;19.044;2023-02-18T10:21:56;13.00;99.90
33761;DHT22;20084;47.912;19.044;2023-02-18T10:24:51;13.00;99.90
33761;DHT22;20084;47.912;19.044;2023-02-18T10:27:27;13.00;99.90
33761;DHT22;20084;47.912;19.044;2023-02-18T10:29:55;12.90;99.90
33761;DHT22;20084;47.912;19.044;2023-02-18T10:32:35;13.00;99.90
33761;DHT22;20084;47.912;19.044;2023-02-18T10:35:16;13.00;99.90
33761;DHT22;20084;47.912;19.044;2023-02-18T10:45:44;13.10;99.90
33761;DHT22;20084;47.912;19.044;2023-02-18T10:48:33;13.10;99.90
33761;DHT22;20084;47.912;19.044;2023-02-18T10:51:18;13.00;99.90
33761;DHT22;20084;47.912;19.044;2023-02-18T10:53:47;12.90;99.90
33761;DHT22;20084;47.912;19.044;2023-02-18T10:56:39;12.80;99.90
33761;DHT22;20084;47.912;19.044;2023-02-18T10:59:17;12.90;99.90
33761;DHT22;20084;47.912;19.044;2023-02-18T11:01:43;13.00;99.90
33761;DHT22;20084;47.912;19.044;2023-02-18T11:04:17;13.10;99.90
33761;DHT22;20084;47.912;19.044;2023-02-18T11:06:47;13.10;99.90
33761;DHT22;20084;47.912;19.044;2023-02-18T11:12:02;13.20;99.90
33761;DHT22;20084;47.912;19.044;2023-02-18T11:14:37;13.20;99.90
33761;DHT22;20084;47.912;19.044;2023-02-18T11:17:27;13.30;99.90
33761;DHT22;20084;47.912;19.044;2023-02-18T11:19:57;13.30;99.90
33761;DHT22;20084;47.912;19.044;2023-02-18T11:22:34;13.30;99.90
33761;DHT22;20084;47.912;19.044;2023-02-18T11:25:15;13.30;99.90
33761;DHT22;20084;47.912;19.044;2023-02-18T11:27:50;13.30;99.90
33761;DHT22;20084;47.912;19.044;2023-02-18T11:30:22;13.30;99.90
33761;DHT22;20084;47.912;19.044;2023-02-18T11:32:54;13.30;99.90
33761;DHT22;20084;47.912;19.044;2023-02-18T11:35:24;13.20;99.90
33761;DHT22;20084;47.912;19.044;2023-02-18T11:37:50;13.30;99.90
33761;DHT22;20084;47.912;19.044;2023-02-18T11:40:22;13.30;99.90
33761;DHT22;20084;47.912;19.044;2023-02-18T11:42:48;13.40;99.90
33761;DHT22;20084;47.912;19.044;2023-02-18T11:45:28;13.40;99.90
33761;DHT22;20084;47.912;19.044;2023-02-18T11:50:33;13.30;99.90
33761;DHT22;20084;47.912;19.044;2023-02-18T11:52:59;13.20;99.90
33761;DHT22;20084;47.912;19.044;2023-02-18T11:55:29;13.10;99.90
33761;DHT22;20084;47.912;19.044;2023-02-18T11:58:05;13.00;99.90
33761;DHT22;20084;47.912;19.044;2023-02-18T12:06:16;12.80;99.90
33761;DHT22;20084;47.912;19.044;2023-02-18T12:08:59;12.80;99.90
33761;DHT22;20084;47.912;19.044;2023-02-18T12:11:32;12.70;99.90
33761;DHT22;20084;47.912;19.044;2023-02-18T12:13:59;12.60;99.90
33761;DHT22;20084;47.912;19.044;2023-02-18T12:16:45;12.60;99.90
33761;DHT22;20084;47.912;19.044;2023-02-18T12:19:41;12.50;99.90
33761;DHT22;20084;47.912;19.044;2023-02-18T12:22:22;12.50;99.90
33761;DHT22;20084;47.912;19.044;2023-02-18T12:33:27;12.90;99.90
33761;DHT22;20084;47.912;19.044;2023-02-18T12:41:22;13.10;99.90
33761;DHT22;20084;47.912;19.044;2023-02-18T12:47:31;13.20;99.90
33761;DHT22;20084;47.912;19.044;2023-02-18T13:12:22;13.70;99.90
33761;DHT22;20084;47.912;19.044;2023-02-18T13:14:58;13.80;99.90
33761;DHT22;20084;47.912;19.044;2023-02-18T13:17:31;13.90;99.90
33761;DHT22;20084;47.912;19.044;2023-02-18T13:20:03;14.00;99.90
33761;DHT22;20084;47.912;19.044;2023-02-18T13:22:30;14.00;99.90
33761;DHT22;20084;47.912;19.044;2023-02-18T13:24:58;14.10;99.90
33761;DHT22;20084;47.912;19.044;2023-02-18T13:27:42;14.00;99.90
33761;DHT22;20084;47.912;19.044;2023-02-18T13:30:33;14.00;99.90
33761;DHT22;20084;47.912;19.044;2023-02-18T13:33:43;14.10;99.90
33761;DHT22;20084;47.912;19.044;2023-02-18T13:36:35;14.20;99.90
33761;DHT22;20084;47.912;19.044;2023-02-18T13:39:02;14.20;99.90
33761;DHT22;20084;47.912;19.044;2023-02-18T13:41:37;14.10;99.90
33761;DHT22;20084;47.912;19.044;2023-02-18T13:46:52;13.90;99.90
33761;DHT22;20084;47.912;19.044;2023-02-18T13:51:53;13.90;99.90
33761;DHT22;20084;47.912;19.044;2023-02-18T13:54:27;13.80;99.90
33761;DHT22;20084;47.912;19.044;2023-02-18T13:57:00;13.80;99.90
33761;DHT22;20084;47.912;19.044;2023-02-18T13:59:42;13.80;99.90
33761;DHT22;20084;47.912;19.044;2023-02-18T14:12:41;13.70;99.90
33761;DHT22;20084;47.912;19.044;2023-02-18T14:20:30;13.70;99.90
33761;DHT22;20084;47.912;19.044;2023-02-18T14:22:56;13.80;99.90
33761;DHT22;20084;47.912;19.044;2023-02-18T14:25:41;13.80;99.90
33761;DHT22;20084;47.912;19.044;2023-02-18T14:31:16;13.80;99.90
33761;DHT22;20084;47.912;19.044;2023-02-18T14:42:36;13.90;99.90
33761;DHT22;20084;47.912;19.044;2023-02-18T14:50:36;14.00;99.90
33761;DHT22;20084;47.912;19.044;2023-02-18T14:53:24;14.00;99.90
33761;DHT22;20084;47.912;19.044;2023-02-18T14:55:54;14.00;99.90
33761;DHT22;20084;47.912;19.044;2023-02-18T14:58:30;14.00;99.90
33761;DHT22;20084;47.912;19.044;2023-02-18T15:00:57;14.10;99.90
33761;DHT22;20084;47.912;19.044;2023-02-18T15:03:30;14.10;99.90
33761;DHT22;20084;47.912;19.044;2023-02-18T15:05:57;14.10;99.90
33761;DHT22;20084;47.912;19.044;2023-02-18T15:08:24;14.10;99.90
33761;DHT22;20084;47.912;19.044;2023-02-18T15:11:03;14.20;99.90
33761;DHT22;20084;47.912;19.044;2023-02-18T15:13:33;14.20;99.90
33761;DHT22;20084;47.912;19.044;2023-02-18T15:16:03;14.20;99.90
33761;DHT22;20084;47.912;19.044;2023-02-18T15:18:37;14.30;99.90
33761;DHT22;20084;47.912;19.044;2023-02-18T15:21:05;14.50;99.90
33761;DHT22;20084;47.912;19.044;2023-02-18T15:23:34;14.90;99.90
33761;DHT22;20084;47.912;19.044;2023-02-18T15:26:01;15.30;99.90
33761;DHT22;20084;47.912;19.044;2023-02-18T15:28:31;15.50;99.90
33761;DHT22;20084;47.912;19.044;2023-02-18T15:30:59;15.60;99.90
33761;DHT22;20084;47.912;19.044;2023-02-18T15:33:26;15.70;99.90
33761;DHT22;20084;47.912;19.044;2023-02-18T15:36:09;15.70;99.90
33761;DHT22;20084;47.912;19.044;2023-02-18T15:38:36;15.70;99.90
33761;DHT22;20084;47.912;19.044;2023-02-18T15:41:15;15.60;99.90
33761;DHT22;20084;47.912;19.044;2023-02-18T15:44:02;15.60;99.90
33761;DHT22;20084;47.912;19.044;2023-02-18T15:46:29;15.50;99.90
33761;DHT22;20084;47.912;19.044;2023-02-18T15:48:56;15.30;99.90
33761;DHT22;20084;47.912;19.044;2023-02-18T15:51:33;15.10;99.90
33761;DHT22;20084;47.912;19.044;2023-02-18T15:54:18;14.90;99.90
33761;DHT22;20084;47.912;19.044;2023-02-18T15:56:52;14.70;99.90
33761;DHT22;20084;47.912;19.044;2023-02-18T15:59:26;14.60;99.90
33761;DHT22;20084;47.912;19.044;2023-02-18T16:01:54;14.60;99.90
33761;DHT22;20084;47.912;19.044;2023-02-18T16:04:30;14.50;99.90
33761;DHT22;20084;47.912;19.044;2023-02-18T16:06:56;14.40;99.90
33761;DHT22;20084;47.912;19.044;2023-02-18T16:09:29;14.30;99.90
33761;DHT22;20084;47.912;19.044;2023-02-18T16:12:01;14.30;99.90
33761;DHT22;20084;47.912;19.044;2023-02-18T16:19:54;14.10;99.90
33761;DHT22;20084;47.912;19.044;2023-02-18T16:24:48;14.00;99.90
33761;DHT22;20084;47.912;19.044;2023-02-18T16:27:16;13.90;99.90
33761;DHT22;20084;47.912;19.044;2023-02-18T16:29:43;13.90;99.90
33761;DHT22;20084;47.912;19.044;2023-02-18T16:32:09;13.80;99.90
33761;DHT22;20084;47.912;19.044;2023-02-18T16:34:35;13.80;99.90
33761;DHT22;20084;47.912;19.044;2023-02-18T16:37:01;13.70;99.90
33761;DHT22;20084;47.912;19.044;2023-02-18T16:39:46;13.70;99.90
33761;DHT22;20084;47.912;19.044;2023-02-18T16:42:14;13.70;99.90
33761;DHT22;20084;47.912;19.044;2023-02-18T16:44:40;13.60;99.90
33761;DHT22;20084;47.912;19.044;2023-02-18T16:47:06;13.60;99.90
33761;DHT22;20084;47.912;19.044;2023-02-18T16:49:36;13.70;99.90
33761;DHT22;20084;47.912;19.044;2023-02-18T16:52:06;13.70;99.90
33761;DHT22;20084;47.912;19.044;2023-02-18T16:54:33;13.80;99.90
33761;DHT22;20084;47.912;19.044;2023-02-18T16:56:59;13.70;99.90
33761;DHT22;20084;47.912;19.044;2023-02-18T16:59:24;13.80;99.90
33761;DHT22;20084;47.912;19.044;2023-02-18T17:01:50;13.80;99.90
33761;DHT22;20084;47.912;19.044;2023-02-18T17:04:18;13.80;99.90
33761;DHT22;20084;47.912;19.044;2023-02-18T17:06:44;13.80;99.90
33761;DHT22;20084;47.912;19.044;2023-02-18T17:09:21;13.80;99.90
33761;DHT22;20084;47.912;19.044;2023-02-18T17:11:49;13.90;99.90
33761;DHT22;20084;47.912;19.044;2023-02-18T17:14:17;13.80;99.90
33761;DHT22;20084;47.912;19.044;2023-02-18T17:16:44;13.80;99.90
33761;DHT22;20084;47.912;19.044;2023-02-18T17:19:10;13.80;99.90
33761;DHT22;20084;47.912;19.044;2023-02-18T17:21:36;13.80;99.90
33761;DHT22;20084;47.912;19.044;2023-02-18T17:24:03;13.80;99.90
33761;DHT22;20084;47.912;19.044;2023-02-18T17:26:30;13.80;99.90
33761;DHT22;20084;47.912;19.044;2023-02-18T17:28:58;13.80;99.90
33761;DHT22;20084;47.912;19.044;2023-02-18T17:31:36;13.80;99.90
33761;DHT22;20084;47.912;19.044;2023-02-18T17:34:06;13.80;99.90
33761;DHT22;20084;47.912;19.044;2023-02-18T17:36:32;13.90;99.90
33761;DHT22;20084;47.912;19.044;2023-02-18T17:38:58;13.90;99.90
33761;DHT22;20084;47.912;19.044;2023-02-18T17:41:25;13.90;99.90
33761;DHT22;20084;47.912;19.044;2023-02-18T17:43:51;13.90;99.90
33761;DHT22;20084;47.912;19.044;2023-02-18T17:46:18;13.90;99.90
33761;DHT22;20084;47.912;19.044;2023-02-18T17:48:45;13.90;99.90
33761;DHT22;20084;47.912;19.044;2023-02-18T17:51:29;13.90;99.90